createdAt,value
2022-12-17T00:03:43.389Z,133.88
2022-12-17T00:09:54.619Z,129.40
2022-12-17T00:16:11.501Z,129.15
2022-12-17T00:22:22.556Z,130.55
2022-12-17T00:28:32.962Z,121.43
2022-12-17T00:40:57.505Z,141.77
2022-12-17T00:47:08.932Z,124.78
2022-12-17T00:53:20.566Z,119.80
2022-12-17T00:59:31.807Z,124.32
2022-12-17T01:05:43.904Z,114.07
2022-12-17T01:11:56.547Z,135.02
2022-12-17T01:18:07.858Z,108.70
2022-12-17T01:24:18.652Z,126.80
2022-12-17T01:30:29.984Z,126.03
2022-12-17T01:36:40.983Z,145.40
2022-12-17T01:43:04.372Z,144.43
2022-12-17T01:49:15.777Z,103.85
2022-12-17T01:55:27.853Z,113.07
2022-12-17T02:01:39.531Z,133.23
2022-12-17T02:08:24.544Z,123.88
2022-12-17T02:14:42.709Z,143.85
2022-12-17T02:20:57.343Z,123.47
2022-12-17T02:27:21.103Z,146.23
2022-12-17T02:33:32.774Z,134.30
2022-12-17T02:39:44.951Z,128.75
2022-12-17T02:45:56.989Z,133.52
2022-12-17T02:52:09.244Z,143.93
2022-12-17T02:58:30.603Z,119.65
2022-12-17T03:04:43.605Z,137.38
2022-12-17T03:10:56.172Z,119.75
2022-12-17T03:17:07.227Z,110.70
2022-12-17T03:23:22.543Z,133.75
2022-12-17T03:29:35.706Z,147.68
2022-12-17T03:35:46.804Z,113.45
2022-12-17T03:41:58.322Z,129.20
2022-12-17T03:48:09.223Z,118.18
2022-12-17T03:54:19.313Z,115.07
2022-12-17T04:00:30.293Z,105.85
2022-12-17T04:06:41.154Z,92.50
2022-12-17T04:12:52.365Z,105.38
2022-12-17T04:19:02.463Z,86.35
2022-12-17T04:25:13.392Z,110.82
2022-12-17T04:31:24.300Z,121.00
2022-12-17T04:37:36.443Z,100.25
2022-12-17T04:43:46.713Z,103.28
2022-12-17T04:49:58.402Z,107.10
2022-12-17T04:56:09.284Z,108.05
2022-12-17T05:02:20.540Z,108.57
2022-12-17T05:08:30.878Z,95.88
2022-12-17T05:14:42.448Z,83.68
2022-12-17T05:20:54.578Z,125.55
2022-12-17T05:27:05.508Z,79.97
2022-12-17T05:33:21.515Z,90.22
2022-12-17T05:39:32.381Z,98.22
2022-12-17T05:45:43.578Z,106.45
2022-12-17T05:51:54.625Z,86.95
2022-12-17T05:58:05.687Z,91.65
2022-12-17T06:04:16.193Z,92.22
2022-12-17T06:10:27.239Z,107.18
2022-12-17T06:16:38.729Z,95.85
2022-12-17T06:22:49.788Z,95.55
2022-12-17T06:29:01.337Z,72.03
2022-12-17T06:35:12.340Z,79.50
2022-12-17T06:41:23.607Z,78.10
2022-12-17T06:47:34.248Z,89.22
2022-12-17T06:53:44.970Z,71.10
2022-12-17T06:59:56.429Z,87.43
2022-12-17T07:06:07.958Z,80.57
2022-12-17T07:12:20.920Z,61.20
2022-12-17T07:18:31.078Z,82.25
2022-12-17T07:24:42.786Z,66.38
2022-12-17T07:30:55.833Z,70.65
2022-12-17T07:37:07.828Z,53.55
2022-12-17T07:43:18.279Z,67.00
2022-12-17T07:49:29.819Z,74.90
2022-12-17T07:55:40.817Z,76.57
2022-12-17T08:01:51.931Z,56.45
2022-12-17T08:08:16.920Z,74.57
2022-12-17T08:14:27.364Z,70.22
2022-12-17T08:20:39.087Z,53.60
2022-12-17T08:26:49.827Z,70.22
2022-12-17T08:33:01.075Z,63.13
2022-12-17T08:39:11.418Z,64.53
2022-12-17T08:51:37.028Z,56.58
2022-12-17T08:57:47.368Z,60.40
2022-12-17T09:03:59.588Z,68.13
2022-12-17T09:10:11.168Z,60.80
2022-12-17T09:16:22.108Z,66.78
2022-12-17T09:22:33.077Z,52.03
2022-12-17T09:28:43.538Z,45.88
2022-12-17T09:34:55.198Z,50.35
2022-12-17T09:41:09.050Z,56.92
2022-12-17T09:47:39.238Z,64.07
2022-12-17T09:53:56.448Z,66.13
2022-12-17T10:00:08.048Z,66.53
2022-12-17T10:06:47.130Z,47.38
2022-12-17T10:12:58.168Z,66.35
2022-12-17T10:19:08.843Z,52.75
2022-12-17T10:25:37.266Z,76.75
2022-12-17T10:31:50.027Z,71.13
2022-12-17T10:38:01.215Z,61.83
2022-12-17T10:44:13.789Z,70.68
2022-12-17T10:50:40.758Z,74.43
2022-12-17T10:56:52.559Z,70.03
2022-12-17T11:03:07.430Z,77.55
2022-12-17T11:09:20.531Z,74.55
2022-12-17T11:15:56.809Z,62.83
2022-12-17T11:22:12.500Z,79.68
2022-12-17T11:28:44.448Z,67.15
2022-12-17T11:35:30.930Z,67.75
2022-12-17T11:41:58.766Z,70.57
2022-12-17T11:48:23.566Z,77.88
2022-12-17T11:55:02.168Z,69.05
2022-12-17T12:01:16.139Z,81.32
2022-12-17T12:07:49.818Z,67.50
2022-12-17T12:14:19.434Z,63.88
2022-12-17T12:20:39.679Z,59.13
2022-12-17T12:27:18.182Z,83.72
2022-12-17T12:33:35.247Z,83.57
2022-12-17T12:40:12.869Z,71.97
2022-12-17T12:46:49.939Z,96.43
2022-12-17T12:53:01.678Z,73.97
2022-12-17T12:59:12.155Z,83.30
2022-12-17T13:05:36.207Z,78.68
2022-12-17T13:11:36.732Z,72.95
2022-12-17T13:17:36.188Z,90.25
2022-12-17T13:23:35.258Z,71.50
2022-12-17T13:29:34.680Z,79.00
2022-12-17T13:35:41.143Z,85.47
2022-12-17T13:41:35.959Z,79.13
2022-12-17T13:47:33.440Z,91.40
2022-12-17T13:53:29.465Z,85.18
2022-12-17T13:59:25.547Z,85.15
2022-12-17T14:05:37.483Z,88.70
2022-12-17T14:11:51.980Z,77.40
2022-12-17T14:17:50.107Z,63.03
2022-12-17T14:23:45.228Z,76.50
2022-12-17T14:29:47.368Z,73.40
2022-12-17T14:35:40.664Z,82.88
2022-12-17T14:41:57.427Z,75.85
2022-12-17T14:48:01.638Z,83.35
2022-12-17T14:54:06.131Z,88.65
2022-12-17T14:59:58.238Z,82.15
2022-12-17T15:05:58.797Z,66.60
2022-12-17T15:11:51.570Z,74.70
2022-12-17T15:17:46.992Z,71.97
2022-12-17T15:23:43.220Z,73.70
2022-12-17T15:29:35.269Z,82.43
2022-12-17T15:35:28.427Z,82.38
2022-12-17T15:41:40.037Z,89.05
2022-12-17T15:47:32.336Z,83.85
2022-12-17T15:53:25.430Z,53.22
2022-12-17T15:59:20.354Z,66.07
2022-12-17T16:05:13.540Z,75.85
2022-12-17T16:11:10.394Z,65.57
2022-12-17T16:17:03.382Z,52.92
2022-12-17T16:22:55.547Z,57.73
2022-12-17T16:28:48.317Z,55.92
2022-12-17T16:34:40.499Z,44.60
2022-12-17T16:40:35.487Z,46.30
2022-12-17T16:46:39.430Z,47.13
2022-12-17T16:52:33.083Z,46.70
2022-12-17T16:58:26.029Z,54.85
2022-12-17T17:04:21.620Z,60.50
2022-12-17T17:10:14.699Z,52.05
2022-12-17T17:22:00.659Z,59.90
2022-12-17T17:27:55.842Z,54.72
2022-12-17T17:33:51.448Z,65.30
2022-12-17T17:39:45.298Z,63.20
2022-12-17T17:45:40.908Z,61.72
2022-12-17T17:52:07.932Z,64.57
2022-12-17T17:57:49.500Z,70.78
2022-12-17T18:03:43.080Z,63.42
2022-12-17T18:09:35.778Z,55.17
2022-12-17T18:15:28.720Z,59.55
2022-12-17T18:21:23.644Z,68.32
2022-12-17T18:27:16.751Z,57.72
2022-12-17T18:33:11.757Z,52.38
2022-12-17T18:39:12.889Z,55.72
2022-12-17T18:45:06.557Z,67.63
2022-12-17T18:51:09.316Z,46.50
2022-12-17T18:57:04.078Z,62.80
2022-12-17T19:02:58.321Z,72.90
2022-12-17T19:08:54.003Z,71.80
2022-12-17T19:14:47.778Z,64.22
2022-12-17T19:20:39.985Z,65.43
2022-12-17T19:32:26.330Z,60.23
2022-12-17T19:38:20.119Z,49.83
2022-12-17T19:44:16.935Z,66.70
2022-12-17T19:50:10.536Z,54.28
2022-12-17T19:56:17.443Z,69.75
2022-12-17T20:02:10.815Z,65.13
2022-12-17T20:08:07.031Z,50.97
2022-12-17T20:14:03.648Z,66.93
2022-12-17T20:19:57.968Z,71.03
2022-12-17T20:26:02.080Z,72.00
2022-12-17T20:31:55.984Z,79.95
2022-12-17T20:37:48.557Z,79.55
2022-12-17T20:43:40.980Z,79.30
2022-12-17T20:49:33.428Z,80.30
2022-12-17T20:55:30.966Z,89.47
2022-12-17T21:01:25.896Z,92.55
2022-12-17T21:07:18.086Z,75.45
2022-12-17T21:13:28.858Z,81.07
2022-12-17T21:19:21.105Z,86.88
2022-12-17T21:25:14.316Z,90.97
2022-12-17T21:31:14.413Z,89.53
2022-12-17T21:37:09.533Z,89.18
2022-12-17T21:43:02.327Z,80.20
2022-12-17T21:48:55.509Z,81.93
2022-12-17T21:54:48.009Z,91.50
2022-12-17T22:00:40.348Z,84.50
2022-12-17T22:06:42.365Z,69.82
2022-12-17T22:12:58.885Z,82.85
2022-12-17T22:18:52.144Z,69.25
2022-12-17T22:24:45.307Z,74.20
2022-12-17T22:30:57.365Z,67.22
2022-12-17T22:39:56.379Z,64.05
2022-12-17T22:44:42.777Z,62.60
2022-12-17T22:49:36.426Z,74.70
2022-12-17T22:55:29.650Z,62.85
2022-12-17T23:01:23.415Z,62.78
2022-12-17T23:07:16.456Z,61.53
2022-12-17T23:13:09.375Z,61.53
2022-12-17T23:19:02.341Z,61.00
2022-12-17T23:24:54.379Z,54.88
2022-12-17T23:30:46.303Z,51.88
2022-12-17T23:36:38.538Z,62.27
2022-12-17T23:42:32.507Z,58.90
2022-12-17T23:48:29.265Z,56.85
2022-12-17T23:54:21.506Z,58.25
